Time;durP1;ratioP1;P1;durP2;ratioP2;P2;SDS_P1;SDS_P2;PMS_P1;PMS_P2;Temp;Humidity;BMP_temperature;BMP_pressure;BME280_temperature;BME280_humidity;BME280_pressure;Samples;Min_cycle;Max_cycle;Signal;HPM_P1;HPM_P2
2022/03/28 00:00:53;;;;;;;7.00;4.00;;;2.80;90.10;;;;;;2088211;28;20172;-71
2022/03/28 00:01:55;;;;;;;9.53;4.80;;;2.80;90.10;;;;;;2088186;28;20180;-71
2022/03/28 00:02:55;;;;;;;7.10;4.18;;;2.80;90.00;;;;;;2089021;28;20678;-71
2022/03/28 00:03:56;;;;;;;8.10;4.20;;;2.80;90.00;;;;;;2088820;28;20182;-71
2022/03/28 00:04:57;;;;;;;9.17;4.30;;;2.80;90.10;;;;;;2089546;28;20233;-71
2022/03/28 00:05:57;;;;;;;8.23;4.33;;;2.80;90.20;;;;;;2089062;28;20227;-71
2022/03/28 00:06:58;;;;;;;9.50;5.20;;;2.80;90.10;;;;;;2089526;28;20236;-72
2022/03/28 00:07:59;;;;;;;8.23;4.50;;;2.80;90.10;;;;;;2089516;28;20185;-71
2022/03/28 00:09:00;;;;;;;7.87;4.60;;;2.80;90.10;;;;;;2088987;28;20186;-71
2022/03/28 00:10:01;;;;;;;6.93;3.77;;;2.80;90.30;;;;;;2088561;28;20245;-71
2022/03/28 00:11:01;;;;;;;8.13;4.35;;;2.80;90.20;;;;;;2080450;28;20259;-71
2022/03/28 00:12:02;;;;;;;8.50;4.93;;;2.80;90.30;;;;;;2088323;28;20929;-71
2022/03/28 00:13:03;;;;;;;10.13;4.82;;;2.70;90.20;;;;;;2088999;28;20200;-71
2022/03/28 00:14:04;;;;;;;10.97;4.23;;;2.70;90.40;;;;;;2089222;28;20184;-71
2022/03/28 00:15:07;;;;;;;9.77;4.07;;;2.70;90.40;;;;;;2088399;28;20204;-71
2022/03/28 00:16:08;;;;;;;7.65;4.30;;;2.60;90.50;;;;;;2088739;28;20192;-72
2022/03/28 00:17:08;;;;;;;8.35;4.78;;;2.60;90.60;;;;;;2089124;28;20260;-71
2022/03/28 00:18:10;;;;;;;8.53;4.27;;;2.60;90.90;;;;;;2089112;28;20223;-70
2022/03/28 00:19:11;;;;;;;9.23;4.03;;;2.60;91.00;;;;;;2088890;28;20238;-71
2022/03/28 00:20:12;;;;;;;7.30;4.10;;;2.60;91.00;;;;;;2088113;28;20199;-71
2022/03/28 00:21:13;;;;;;;7.90;4.32;;;2.60;90.80;;;;;;2087813;28;20200;-71
2022/03/28 00:22:13;;;;;;;7.70;3.70;;;2.60;90.90;;;;;;2088380;28;20288;-71
2022/03/28 00:23:14;;;;;;;8.43;4.17;;;2.60;91.00;;;;;;2088915;28;20639;-71
2022/03/28 00:24:15;;;;;;;6.97;4.03;;;2.70;90.80;;;;;;2088505;28;20180;-71
2022/03/28 00:25:16;;;;;;;6.93;4.47;;;2.60;90.60;;;;;;2079939;28;20196;-71
2022/03/28 00:26:17;;;;;;;7.17;4.27;;;2.70;90.50;;;;;;2088528;28;20745;-71
2022/03/28 00:27:19;;;;;;;6.90;3.87;;;2.70;90.30;;;;;;2088464;28;20204;-71
2022/03/28 00:28:19;;;;;;;9.23;4.15;;;2.70;90.20;;;;;;2088452;28;20667;-71
2022/03/28 00:29:20;;;;;;;9.57;4.50;;;2.70;90.10;;;;;;2088902;28;20196;-71
2022/03/28 00:30:21;;;;;;;10.23;5.40;;;2.70;90.10;;;;;;2089056;28;20199;-71
2022/03/28 00:31:22;;;;;;;7.03;4.10;;;2.70;90.00;;;;;;2087698;28;20200;-71
2022/03/28 00:32:23;;;;;;;10.60;4.90;;;2.60;90.00;;;;;;2088552;28;20192;-71
2022/03/28 00:33:23;;;;;;;9.13;4.70;;;2.60;90.10;;;;;;2089141;28;20286;-71
2022/03/28 00:34:24;;;;;;;10.90;5.60;;;2.60;90.10;;;;;;2090185;28;20188;-69
2022/03/28 00:35:26;;;;;;;9.70;4.67;;;2.50;90.40;;;;;;2090311;28;20187;-71
2022/03/28 00:36:27;;;;;;;9.57;3.95;;;2.50;90.60;;;;;;2081989;28;20173;-72
2022/03/28 00:37:28;;;;;;;9.10;4.87;;;2.50;90.80;;;;;;2090072;28;20250;-70
2022/03/28 00:38:28;;;;;;;10.17;4.30;;;2.50;90.60;;;;;;2090454;28;20212;-71
2022/03/28 00:39:29;;;;;;;8.07;4.97;;;2.50;90.60;;;;;;2090374;28;20203;-71
2022/03/28 00:40:32;;;;;;;9.30;4.27;;;2.50;90.60;;;;;;2089774;28;20183;-71
2022/03/28 00:41:32;;;;;;;8.43;4.40;;;2.40;90.70;;;;;;2081503;28;20212;-70
2022/03/28 00:42:33;;;;;;;7.67;3.97;;;2.40;90.90;;;;;;2089940;28;20219;-71
2022/03/28 00:43:34;;;;;;;8.37;4.20;;;2.40;90.90;;;;;;2090795;28;20185;-71
2022/03/28 00:44:34;;;;;;;8.43;4.37;;;2.40;91.10;;;;;;2089827;28;20180;-71
2022/03/28 00:45:38;;;;;;;8.63;4.60;;;2.40;91.30;;;;;;2090038;28;20263;-70
2022/03/28 00:46:39;;;;;;;6.13;3.97;;;2.40;91.10;;;;;;2089928;28;20692;-71
2022/03/28 00:47:41;;;;;;;8.50;4.32;;;2.40;91.20;;;;;;2081865;28;20184;-71
2022/03/28 00:48:42;;;;;;;10.27;4.38;;;2.50;91.10;;;;;;2089918;28;20215;-70
2022/03/28 00:49:43;;;;;;;9.68;4.50;;;2.40;91.00;;;;;;2090679;28;20188;-71
2022/03/28 00:50:44;;;;;;;6.67;4.03;;;2.40;90.90;;;;;;2089819;28;20193;-70
2022/03/28 00:51:44;;;;;;;7.80;4.40;;;2.40;91.10;;;;;;2081258;28;20552;-71
2022/03/28 00:52:45;;;;;;;9.87;4.63;;;2.40;91.20;;;;;;2081494;28;20206;-70
2022/03/28 00:53:46;;;;;;;12.43;5.33;;;2.40;91.40;;;;;;2089632;28;20234;-71
2022/03/28 00:54:47;;;;;;;8.35;4.35;;;2.40;91.20;;;;;;2089642;28;20301;-71
2022/03/28 00:55:48;;;;;;;8.67;4.63;;;2.40;91.20;;;;;;2089878;28;20234;-71
2022/03/28 00:56:50;;;;;;;8.93;4.22;;;2.40;91.00;;;;;;2089475;28;20226;-71
2022/03/28 00:57:51;;;;;;;9.38;4.40;;;2.40;91.00;;;;;;2081569;28;20185;-71
2022/03/28 00:58:52;;;;;;;7.63;4.17;;;2.40;91.00;;;;;;2081239;28;20212;-72
2022/03/28 00:59:53;;;;;;;8.77;5.50;;;2.40;91.00;;;;;;2089776;28;20569;-70
2022/03/28 01:00:53;;;;;;;6.82;4.80;;;2.40;91.10;;;;;;2089651;28;20221;-70
2022/03/28 01:01:54;;;;;;;8.03;5.03;;;2.40;91.20;;;;;;2089086;28;20210;-70
2022/03/28 01:02:56;;;;;;;8.70;4.37;;;2.30;91.30;;;;;;2090213;28;20181;-70
2022/03/28 01:03:57;;;;;;;10.63;5.03;;;2.30;91.40;;;;;;2089724;28;20196;-70
2022/03/28 01:04:59;;;;;;;8.27;3.97;;;2.30;91.70;;;;;;2089533;28;20238;-70
2022/03/28 01:06:00;;;;;;;9.02;5.05;;;2.30;92.00;;;;;;2087252;28;20950;-70
2022/03/28 01:07:01;;;;;;;10.43;4.75;;;2.20;92.10;;;;;;2081966;28;20181;-70
2022/03/28 01:08:03;;;;;;;8.83;4.63;;;2.20;92.50;;;;;;2082189;28;20254;-70
2022/03/28 01:09:05;;;;;;;10.25;4.88;;;2.30;92.50;;;;;;2082254;28;20438;-70
2022/03/28 01:10:09;;;;;;;9.63;5.00;;;2.20;92.60;;;;;;2081509;28;20247;-69
2022/03/28 01:11:10;;;;;;;10.27;4.47;;;2.30;92.60;;;;;;2080649;28;20251;-70
2022/03/28 01:12:12;;;;;;;10.50;5.60;;;2.30;92.60;;;;;;2081064;28;20612;-70
2022/03/28 01:13:13;;;;;;;8.60;5.05;;;2.30;92.50;;;;;;2081222;28;20685;-70
2022/03/28 01:14:14;;;;;;;13.52;5.35;;;2.30;92.40;;;;;;2073234;28;20184;-70
2022/03/28 01:15:15;;;;;;;9.13;4.90;;;2.30;92.40;;;;;;2081230;28;20848;-70
2022/03/28 01:16:15;;;;;;;9.88;4.88;;;2.30;92.20;;;;;;2089072;28;20211;-74
2022/03/28 01:18:36;;;;;;;9.32;5.45;;;2.30;92.20;;;;;;2089420;28;20200;-71
2022/03/28 01:19:37;;;;;;;7.38;4.78;;;2.30;92.10;;;;;;2084059;28;20185;-70
2022/03/28 01:20:40;;;;;;;9.37;5.03;;;2.30;92.10;;;;;;2081517;28;20173;-71
2022/03/28 01:21:40;;;;;;;8.23;4.82;;;2.30;92.40;;;;;;2080973;28;20181;-70
2022/03/28 01:22:41;;;;;;;11.47;4.97;;;2.20;92.30;;;;;;2089801;28;20945;-72
2022/03/28 01:23:42;;;;;;;10.43;5.33;;;2.20;92.10;;;;;;2090008;28;20207;-71
2022/03/28 01:24:44;;;;;;;11.85;5.57;;;2.20;92.20;;;;;;2090217;28;20678;-70
2022/03/28 01:25:51;;;;;;;8.50;4.93;;;2.20;92.10;;;;;;2089591;28;20220;-72
2022/03/28 01:26:53;;;;;;;12.23;5.28;;;2.20;91.90;;;;;;2082317;28;20241;-71
2022/03/28 01:27:53;;;;;;;8.80;4.63;;;2.20;91.70;;;;;;2081807;28;20212;-71
2022/03/28 01:28:54;;;;;;;8.70;5.13;;;2.20;91.60;;;;;;2089361;28;20230;-71
2022/03/28 01:29:55;;;;;;;9.10;4.97;;;2.20;91.80;;;;;;2089347;28;20181;-70
2022/03/28 01:30:56;;;;;;;10.50;5.23;;;2.10;92.00;;;;;;2089699;28;20243;-71
2022/03/28 01:31:56;;;;;;;9.67;5.83;;;2.10;92.30;;;;;;2088605;28;20682;-71
2022/03/28 01:32:59;;;;;;;8.80;4.70;;;2.10;92.30;;;;;;2089692;28;20184;-71
2022/03/28 01:34:01;;;;;;;9.05;5.70;;;2.10;92.30;;;;;;2089550;28;20180;-71
2022/03/28 01:35:01;;;;;;;11.10;4.47;;;2.10;92.40;;;;;;2089678;28;20204;-71
2022/03/28 01:36:02;;;;;;;8.23;5.17;;;2.10;92.60;;;;;;2090198;28;20643;-71
2022/03/28 01:37:04;;;;;;;9.77;5.45;;;2.10;92.70;;;;;;2089614;28;20172;-71
2022/03/28 01:38:08;;;;;;;11.50;4.93;;;2.10;92.80;;;;;;2081375;28;20340;-71
2022/03/28 01:39:09;;;;;;;8.85;5.50;;;2.10;92.90;;;;;;2081853;28;20177;-71
2022/03/28 01:40:12;;;;;;;10.53;5.30;;;2.10;92.90;;;;;;2089371;28;20252;-71
2022/03/28 01:41:12;;;;;;;7.47;4.63;;;2.10;92.70;;;;;;2089552;28;20180;-71
2022/03/28 01:42:13;;;;;;;12.53;5.47;;;2.20;92.70;;;;;;2089760;28;20189;-71
2022/03/28 01:43:14;;;;;;;11.10;5.77;;;2.20;92.50;;;;;;2089504;28;20234;-71
2022/03/28 01:44:15;;;;;;;8.13;4.53;;;2.10;92.70;;;;;;2089793;28;20176;-71
2022/03/28 01:45:17;;;;;;;10.57;5.47;;;2.10;92.80;;;;;;2081381;28;20219;-71
2022/03/28 01:46:18;;;;;;;12.30;5.93;;;2.00;93.00;;;;;;2073428;28;20189;-71
2022/03/28 01:47:19;;;;;;;10.93;5.47;;;2.00;93.00;;;;;;2089469;28;20272;-71
2022/03/28 01:48:19;;;;;;;8.07;4.80;;;2.00;93.30;;;;;;2090044;28;20180;-71
2022/03/28 01:49:21;;;;;;;11.40;5.07;;;2.00;93.50;;;;;;2090019;28;20184;-71
2022/03/28 01:50:22;;;;;;;10.50;5.68;;;2.00;93.60;;;;;;2090091;28;20196;-71
2022/03/28 01:51:23;;;;;;;14.10;5.85;;;1.90;93.60;;;;;;2089443;28;20275;-72
2022/03/28 01:52:24;;;;;;;13.17;5.87;;;1.90;93.90;;;;;;2089999;28;20635;-71
2022/03/28 01:53:24;;;;;;;11.53;5.70;;;1.90;94.00;;;;;;2089417;28;20267;-71
2022/03/28 01:54:25;;;;;;;8.70;4.90;;;1.90;94.00;;;;;;2089561;28;20763;-71
2022/03/28 01:55:26;;;;;;;10.60;5.13;;;1.90;93.90;;;;;;2089819;28;20863;-71
2022/03/28 01:56:28;;;;;;;9.93;5.07;;;2.00;93.80;;;;;;2089771;28;20687;-71
2022/03/28 01:57:28;;;;;;;9.55;5.30;;;2.10;93.30;;;;;;2089014;28;20188;-71
2022/03/28 01:58:29;;;;;;;9.20;5.60;;;2.10;93.10;;;;;;2089079;28;20245;-71
2022/03/28 01:59:30;;;;;;;11.03;5.63;;;2.10;92.80;;;;;;2089994;28;20275;-71
2022/03/28 02:00:32;;;;;;;11.60;5.20;;;2.20;92.50;;;;;;2090001;28;20176;-72
2022/03/28 02:01:34;;;;;;;11.52;5.55;;;2.20;92.20;;;;;;2089273;28;20203;-72
2022/03/28 02:02:35;;;;;;;9.75;5.13;;;2.10;91.70;;;;;;2089777;28;20180;-71
2022/03/28 02:03:35;;;;;;;9.40;5.17;;;2.20;91.70;;;;;;2089139;28;20526;-71
2022/03/28 02:04:36;;;;;;;9.03;5.10;;;2.20;91.70;;;;;;2089285;28;21667;-72
2022/03/28 02:05:37;;;;;;;10.67;5.13;;;2.20;91.60;;;;;;2089772;28;20568;-71
2022/03/28 02:06:37;;;;;;;10.93;5.57;;;2.10;91.80;;;;;;2090038;28;20204;-71
2022/03/28 02:07:42;;;;;;;8.80;5.37;;;2.10;92.10;;;;;;2088888;28;20183;-71
2022/03/28 02:08:43;;;;;;;12.38;5.95;;;2.00;92.40;;;;;;2081645;28;20161;-72
2022/03/28 02:09:45;;;;;;;9.30;5.00;;;2.00;92.70;;;;;;2081004;28;20268;-71
2022/03/28 02:10:45;;;;;;;11.40;6.10;;;1.90;93.00;;;;;;2080877;28;20196;-71
2022/03/28 02:11:46;;;;;;;13.23;5.73;;;1.90;93.30;;;;;;2088125;28;20283;-71
2022/03/28 02:12:48;;;;;;;10.57;5.57;;;1.90;93.50;;;;;;2089749;28;20193;-71
2022/03/28 02:13:49;;;;;;;11.80;5.40;;;1.90;93.40;;;;;;2080618;28;20207;-71
2022/03/28 02:14:50;;;;;;;9.77;5.53;;;1.90;93.40;;;;;;2073009;28;20202;-71
2022/03/28 02:15:50;;;;;;;11.43;5.70;;;1.90;93.20;;;;;;2081020;28;20175;-71
2022/03/28 02:16:51;;;;;;;11.00;6.10;;;1.90;93.10;;;;;;2089179;28;20219;-71
2022/03/28 02:17:52;;;;;;;10.47;5.27;;;1.90;93.00;;;;;;2089614;28;20185;-70
2022/03/28 02:18:52;;;;;;;9.20;4.90;;;1.90;93.00;;;;;;2088877;28;20183;-71
2022/03/28 02:19:53;;;;;;;11.70;5.27;;;1.90;93.00;;;;;;2080675;28;20181;-71
2022/03/28 02:20:54;;;;;;;9.75;5.80;;;2.00;92.90;;;;;;2089112;28;20670;-71
2022/03/28 02:21:55;;;;;;;11.07;5.07;;;2.00;93.00;;;;;;2089129;28;20230;-71
2022/03/28 02:22:55;;;;;;;12.10;6.07;;;2.00;93.00;;;;;;2088941;28;20179;-71
2022/03/28 02:23:56;;;;;;;9.90;5.37;;;2.00;92.90;;;;;;2080750;28;20311;-71
2022/03/28 02:24:57;;;;;;;9.97;5.37;;;2.00;93.20;;;;;;2096624;28;20210;-71
2022/03/28 02:25:58;;;;;;;11.83;6.07;;;2.00;93.40;;;;;;2105600;28;20599;-71
2022/03/28 02:26:59;;;;;;;10.13;5.15;;;2.00;93.60;;;;;;2089618;28;20172;-71
2022/03/28 02:27:59;;;;;;;13.93;7.03;;;2.00;93.60;;;;;;2089527;28;20173;-71
2022/03/28 02:29:00;;;;;;;11.40;6.03;;;1.90;93.90;;;;;;2088956;28;20644;-71
2022/03/28 02:30:02;;;;;;;12.63;6.50;;;1.90;94.00;;;;;;2088759;28;20175;-71
2022/03/28 02:31:03;;;;;;;13.20;6.18;;;1.90;94.10;;;;;;2088571;28;20725;-71
2022/03/28 02:32:05;;;;;;;11.85;5.72;;;1.90;94.00;;;;;;2088586;28;20176;-71
2022/03/28 02:33:07;;;;;;;10.13;5.90;;;1.80;94.20;;;;;;2088572;28;20778;-71
2022/03/28 02:34:07;;;;;;;10.63;5.15;;;1.80;94.50;;;;;;2080645;28;20184;-71
2022/03/28 02:35:09;;;;;;;10.00;5.57;;;1.80;94.50;;;;;;2088925;28;20283;-71
2022/03/28 02:36:10;;;;;;;10.93;5.15;;;1.80;94.80;;;;;;2088868;28;20218;-71
2022/03/28 02:37:11;;;;;;;12.53;5.73;;;1.80;94.60;;;;;;2088835;28;20532;-71
2022/03/28 02:38:12;;;;;;;9.85;5.65;;;1.90;94.50;;;;;;2088833;28;20218;-71
2022/03/28 02:39:12;;;;;;;11.20;6.07;;;1.90;94.30;;;;;;2088520;28;20988;-71
2022/03/28 02:40:13;;;;;;;9.43;5.70;;;1.90;94.40;;;;;;2089505;28;20210;-71
2022/03/28 02:41:14;;;;;;;11.93;6.33;;;1.90;94.30;;;;;;2088033;28;20724;-71
2022/03/28 02:42:14;;;;;;;8.23;5.37;;;2.00;94.10;;;;;;2088829;28;20222;-71
2022/03/28 02:43:15;;;;;;;9.73;6.13;;;2.00;93.80;;;;;;2089304;28;20176;-71
2022/03/28 02:44:17;;;;;;;11.73;6.00;;;2.00;93.60;;;;;;2088910;28;20176;-71
2022/03/28 02:45:18;;;;;;;13.88;6.20;;;2.00;93.50;;;;;;2088710;28;20203;-71
2022/03/28 02:46:19;;;;;;;12.13;6.60;;;2.00;93.40;;;;;;2088699;28;20263;-70
2022/03/28 02:47:21;;;;;;;8.00;4.93;;;2.00;93.40;;;;;;2088488;28;20172;-71
2022/03/28 02:48:22;;;;;;;10.98;6.60;;;1.90;93.50;;;;;;2088818;28;20694;-72
2022/03/28 02:49:22;;;;;;;10.70;6.23;;;1.90;93.60;;;;;;2080328;28;20300;-70
2022/03/28 02:50:23;;;;;;;10.23;5.83;;;1.90;93.60;;;;;;2088807;28;20180;-71
2022/03/28 02:51:23;;;;;;;12.30;6.53;;;1.90;93.60;;;;;;2088047;28;20226;-72
2022/03/28 02:52:24;;;;;;;12.60;6.30;;;1.90;93.70;;;;;;2080457;28;20188;-71
2022/03/28 02:53:25;;;;;;;8.83;5.13;;;2.00;93.60;;;;;;2088128;28;20250;-71
2022/03/28 02:54:26;;;;;;;10.80;5.93;;;1.90;93.60;;;;;;2089310;28;20184;-71
2022/03/28 02:55:27;;;;;;;11.70;6.10;;;1.90;93.50;;;;;;2089087;28;20191;-71
2022/03/28 02:56:27;;;;;;;11.60;5.33;;;1.90;93.30;;;;;;2088325;28;20182;-71
2022/03/28 02:57:28;;;;;;;10.43;6.37;;;1.90;93.20;;;;;;2088582;28;20288;-71
2022/03/28 02:58:29;;;;;;;11.40;6.17;;;1.90;93.50;;;;;;2087429;28;20211;-71
2022/03/28 02:59:29;;;;;;;13.47;6.77;;;1.90;93.80;;;;;;2088753;28;20176;-71
2022/03/28 03:00:30;;;;;;;12.77;5.67;;;1.80;94.00;;;;;;2089462;28;20183;-71
2022/03/28 03:01:31;;;;;;;13.13;6.03;;;1.80;94.00;;;;;;2088626;28;20658;-71
2022/03/28 03:02:31;;;;;;;11.40;5.83;;;1.90;93.60;;;;;;2088765;28;20188;-71
2022/03/28 03:03:32;;;;;;;13.87;6.10;;;1.80;93.40;;;;;;2088612;28;20418;-71
2022/03/28 03:04:34;;;;;;;11.10;5.33;;;1.80;93.50;;;;;;2089329;28;20177;-71
2022/03/28 03:05:34;;;;;;;9.60;5.50;;;1.80;93.60;;;;;;2088515;28;20180;-71
2022/03/28 03:06:35;;;;;;;11.83;6.17;;;1.80;93.90;;;;;;2088790;28;20219;-71
2022/03/28 03:07:36;;;;;;;11.17;6.43;;;1.80;93.90;;;;;;2071638;28;20212;-72
2022/03/28 03:08:37;;;;;;;13.85;5.80;;;1.80;93.90;;;;;;2080679;28;20196;-71
2022/03/28 03:09:37;;;;;;;12.10;6.27;;;1.80;94.20;;;;;;2101579;28;20266;-71
2022/03/28 03:10:38;;;;;;;12.10;6.47;;;1.80;94.60;;;;;;2088557;28;20184;-71
2022/03/28 03:11:40;;;;;;;12.57;6.17;;;1.80;94.60;;;;;;2078981;28;20207;-71
2022/03/28 03:12:41;;;;;;;9.50;5.25;;;1.80;94.50;;;;;;2080678;28;20176;-71
2022/03/28 03:13:41;;;;;;;13.20;7.07;;;1.80;94.60;;;;;;2088703;28;20192;-71
2022/03/28 03:14:42;;;;;;;11.57;6.10;;;1.80;94.40;;;;;;2089209;28;20215;-71
2022/03/28 03:15:42;;;;;;;10.40;5.57;;;1.80;94.90;;;;;;2089317;28;20180;-71
2022/03/28 03:16:43;;;;;;;10.73;5.70;;;1.90;94.30;;;;;;2088625;28;20204;-71
2022/03/28 03:17:44;;;;;;;11.43;6.63;;;1.90;94.30;;;;;;2080458;28;20659;-71
2022/03/28 03:18:45;;;;;;;9.70;6.38;;;1.80;94.50;;;;;;2088550;28;20238;-71
2022/03/28 03:19:46;;;;;;;11.67;6.60;;;1.80;94.90;;;;;;2088444;28;20181;-71
2022/03/28 03:20:47;;;;;;;12.23;6.30;;;1.80;95.00;;;;;;2088598;28;20682;-71
2022/03/28 03:21:47;;;;;;;11.57;6.10;;;1.70;95.20;;;;;;2088832;28;20208;-71
2022/03/28 03:22:48;;;;;;;11.23;6.60;;;1.70;95.00;;;;;;2088549;28;20670;-71
2022/03/28 03:23:49;;;;;;;11.03;6.30;;;1.70;95.00;;;;;;2088618;28;20188;-71
2022/03/28 03:24:49;;;;;;;15.93;6.80;;;1.60;95.10;;;;;;2088456;28;20250;-71
2022/03/28 03:25:50;;;;;;;13.93;6.10;;;1.60;95.40;;;;;;2088650;28;20217;-71
2022/03/28 03:26:51;;;;;;;12.20;6.03;;;1.60;95.30;;;;;;2089207;28;20215;-71
2022/03/28 03:27:51;;;;;;;9.73;6.17;;;1.60;95.20;;;;;;2089292;28;20183;-71
2022/03/28 03:28:55;;;;;;;12.40;6.83;;;1.70;94.90;;;;;;2089061;28;20187;-71
2022/03/28 03:29:56;;;;;;;11.13;5.85;;;1.70;94.50;;;;;;2089198;28;20188;-71
2022/03/28 03:30:57;;;;;;;13.40;6.57;;;1.70;94.40;;;;;;2089019;28;20222;-71
2022/03/28 03:31:57;;;;;;;14.20;6.77;;;1.70;94.40;;;;;;2087522;28;20181;-72
2022/03/28 03:32:58;;;;;;;10.43;5.63;;;1.70;94.10;;;;;;2088388;28;20647;-71
2022/03/28 03:33:59;;;;;;;10.03;5.57;;;1.70;94.00;;;;;;2088733;28;20186;-71
2022/03/28 03:35:00;;;;;;;11.85;6.10;;;1.70;94.00;;;;;;2088429;28;20200;-71
2022/03/28 03:36:01;;;;;;;11.20;6.20;;;1.70;94.10;;;;;;2088650;28;20719;-71
2022/03/28 03:37:04;;;;;;;14.20;7.05;;;1.70;94.30;;;;;;2088562;28;20183;-71
2022/03/28 03:38:05;;;;;;;12.73;6.53;;;1.70;94.30;;;;;;2088643;28;20194;-71
2022/03/28 03:39:05;;;;;;;13.40;6.27;;;1.70;94.60;;;;;;2088590;28;20187;-71
2022/03/28 03:40:08;;;;;;;12.80;6.27;;;1.70;94.70;;;;;;2088573;28;20263;-71
2022/03/28 03:41:09;;;;;;;11.75;6.13;;;1.70;94.50;;;;;;2079851;28;20773;-70
2022/03/28 03:42:11;;;;;;;11.60;6.20;;;1.70;94.70;;;;;;2080443;28;20185;-71
2022/03/28 03:43:12;;;;;;;11.20;6.68;;;1.70;94.70;;;;;;2088387;28;20191;-71
2022/03/28 03:44:13;;;;;;;14.35;6.82;;;1.70;94.60;;;;;;2088249;28;20188;-71
2022/03/28 03:45:14;;;;;;;15.07;6.90;;;1.80;94.60;;;;;;2071886;28;20247;-70
2022/03/28 03:46:15;;;;;;;13.55;6.15;;;1.80;94.10;;;;;;2080355;28;20185;-70
2022/03/28 03:47:16;;;;;;;12.93;6.80;;;1.80;94.10;;;;;;2089066;28;20181;-71
2022/03/28 03:48:18;;;;;;;11.63;6.67;;;1.80;94.00;;;;;;2089165;28;20180;-70
2022/03/28 03:49:19;;;;;;;11.57;6.40;;;1.70;94.10;;;;;;2088961;28;20191;-70
2022/03/28 03:50:20;;;;;;;11.65;6.22;;;1.70;94.80;;;;;;2089079;28;20214;-71
2022/03/28 03:51:21;;;;;;;12.23;5.93;;;1.70;94.90;;;;;;2087417;28;20658;-71
2022/03/28 03:52:22;;;;;;;10.67;5.93;;;1.70;95.60;;;;;;2088481;28;20845;-71
2022/03/28 03:53:22;;;;;;;13.83;6.40;;;1.70;95.00;;;;;;2089073;28;20187;-71
2022/03/28 03:54:23;;;;;;;15.53;8.43;;;1.70;95.10;;;;;;2089058;28;20204;-71
2022/03/28 03:55:24;;;;;;;13.40;6.90;;;1.70;95.20;;;;;;2088435;28;20191;-71
2022/03/28 03:56:25;;;;;;;10.83;5.90;;;1.70;95.10;;;;;;2088374;28;20238;-71
2022/03/28 03:57:26;;;;;;;12.27;6.28;;;1.70;95.00;;;;;;2089054;28;20259;-71
2022/03/28 03:58:27;;;;;;;12.13;6.83;;;1.70;94.70;;;;;;2088948;28;20678;-71
2022/03/28 03:59:28;;;;;;;16.53;9.03;;;1.70;94.60;;;;;;2088239;28;20184;-71
2022/03/28 04:00:28;;;;;;;14.93;7.47;;;1.70;94.30;;;;;;2088276;28;20172;-71
2022/03/28 04:01:29;;;;;;;12.00;6.93;;;1.80;94.10;;;;;;2088555;28;20183;-71
2022/03/28 04:02:30;;;;;;;14.27;6.13;;;1.70;93.80;;;;;;2088349;28;20660;-71
2022/03/28 04:03:33;;;;;;;12.93;6.27;;;1.80;93.90;;;;;;2080319;28;20177;-71
2022/03/28 04:04:33;;;;;;;11.52;5.93;;;1.80;93.90;;;;;;2088115;28;20183;-71
2022/03/28 04:05:37;;;;;;;16.80;7.03;;;1.70;94.10;;;;;;2088867;28;20184;-71
2022/03/28 04:06:39;;;;;;;10.95;6.78;;;1.70;94.10;;;;;;2088347;28;20223;-71
2022/03/28 04:07:40;;;;;;;11.77;6.45;;;1.60;94.30;;;;;;2080133;28;20184;-71
2022/03/28 04:08:40;;;;;;;15.17;6.57;;;1.60;94.50;;;;;;2088023;28;20329;-71
2022/03/28 04:09:41;;;;;;;13.87;6.83;;;1.60;94.50;;;;;;2089117;28;20180;-71
2022/03/28 04:10:45;;;;;;;14.57;6.27;;;1.60;94.80;;;;;;2089033;28;20566;-71
2022/03/28 04:11:47;;;;;;;12.52;6.53;;;1.60;95.30;;;;;;2080220;28;20189;-71
2022/03/28 04:12:48;;;;;;;13.80;6.15;;;1.60;95.40;;;;;;2080739;28;20563;-71
2022/03/28 04:13:48;;;;;;;9.35;5.95;;;1.60;95.20;;;;;;2080638;28;20636;-71
2022/03/28 04:14:49;;;;;;;12.30;6.60;;;1.60;95.10;;;;;;2080581;28;20315;-71
2022/03/28 04:15:50;;;;;;;13.23;7.50;;;1.60;95.30;;;;;;2088411;28;20180;-71
2022/03/28 04:16:51;;;;;;;10.50;6.68;;;1.50;95.50;;;;;;2088087;28;20659;-71
2022/03/28 04:17:51;;;;;;;12.43;6.80;;;1.50;95.60;;;;;;2080721;28;20251;-71
2022/03/28 04:18:52;;;;;;;11.60;6.50;;;1.50;95.50;;;;;;2080606;28;20205;-71
2022/03/28 04:19:53;;;;;;;11.27;6.57;;;1.50;95.50;;;;;;2079858;28;20196;-71
2022/03/28 04:20:55;;;;;;;12.53;6.27;;;1.50;95.40;;;;;;2079895;28;20162;-71
2022/03/28 04:21:55;;;;;;;10.73;6.00;;;1.50;95.40;;;;;;2079994;28;20640;-71
2022/03/28 04:22:56;;;;;;;12.63;6.60;;;1.50;95.20;;;;;;2081701;28;20272;-70
2022/03/28 04:23:56;;;;;;;13.03;7.00;;;1.50;95.20;;;;;;2088817;28;20180;-71
2022/03/28 04:24:57;;;;;;;11.93;6.53;;;1.50;95.70;;;;;;2088615;28;20193;-71
2022/03/28 04:25:58;;;;;;;13.50;6.60;;;1.50;95.20;;;;;;2088876;28;20177;-71
2022/03/28 04:26:58;;;;;;;11.57;7.00;;;1.50;95.30;;;;;;2088052;28;20181;-71
2022/03/28 04:27:59;;;;;;;14.17;7.40;;;1.50;95.40;;;;;;2088226;28;20165;-71
2022/03/28 04:29:00;;;;;;;13.03;6.87;;;1.50;95.30;;;;;;2088705;28;20183;-71
2022/03/28 04:30:03;;;;;;;14.33;7.07;;;1.50;95.40;;;;;;2088210;28;20426;-71
2022/03/28 04:31:04;;;;;;;13.25;7.57;;;1.50;95.30;;;;;;2087667;28;20184;-71
2022/03/28 04:32:05;;;;;;;12.20;6.67;;;1.50;95.30;;;;;;2088072;28;20184;-71
2022/03/28 04:33:09;;;;;;;12.82;6.90;;;1.50;95.50;;;;;;2087818;28;20179;-71
2022/03/28 04:34:10;;;;;;;12.00;6.80;;;1.50;95.40;;;;;;2088769;28;20168;-71
2022/03/28 04:35:12;;;;;;;13.20;7.30;;;1.50;95.30;;;;;;2088552;28;20208;-71
2022/03/28 04:36:13;;;;;;;15.00;7.70;;;1.50;95.50;;;;;;2088110;28;20191;-71
2022/03/28 04:37:13;;;;;;;15.98;7.30;;;1.50;95.50;;;;;;2079856;28;20177;-71
2022/03/28 04:38:14;;;;;;;14.90;7.57;;;1.50;95.40;;;;;;2079878;28;20173;-71
2022/03/28 04:39:15;;;;;;;10.97;6.63;;;1.50;95.40;;;;;;2087956;28;20234;-71
2022/03/28 04:40:17;;;;;;;11.97;7.60;;;1.50;95.30;;;;;;2088156;28;20552;-71
2022/03/28 04:41:18;;;;;;;14.07;7.18;;;1.50;95.20;;;;;;2087553;28;20183;-71
2022/03/28 04:42:19;;;;;;;12.80;7.13;;;1.50;94.90;;;;;;2088163;28;20180;-72
2022/03/28 04:43:20;;;;;;;12.47;6.70;;;1.50;95.00;;;;;;2079878;28;20180;-71
2022/03/28 04:44:21;;;;;;;10.93;6.35;;;1.50;95.30;;;;;;2079926;28;20184;-72
2022/03/28 04:45:22;;;;;;;12.87;7.13;;;1.50;95.30;;;;;;2088095;28;20278;-72
2022/03/28 04:46:22;;;;;;;14.50;7.23;;;1.50;95.30;;;;;;2088741;28;20232;-72
2022/03/28 04:47:23;;;;;;;11.43;6.60;;;1.50;95.40;;;;;;2088445;28;20176;-72
2022/03/28 04:48:24;;;;;;;12.40;6.93;;;1.50;95.40;;;;;;2088701;28;20708;-72
2022/03/28 04:49:25;;;;;;;12.43;7.00;;;1.50;95.40;;;;;;2089146;28;20186;-71
2022/03/28 04:50:26;;;;;;;14.47;7.27;;;1.50;95.60;;;;;;2089309;28;20674;-72
2022/03/28 04:51:27;;;;;;;14.05;7.15;;;1.50;95.70;;;;;;2089147;28;20588;-72
2022/03/28 04:52:27;;;;;;;19.23;7.23;;;1.50;95.80;;;;;;2089560;28;20195;-72
2022/03/28 04:53:28;;;;;;;14.07;7.97;;;1.50;95.90;;;;;;2089530;28;20565;-72
2022/03/28 04:54:29;;;;;;;11.00;6.60;;;1.50;96.00;;;;;;2089617;28;20263;-71
2022/03/28 04:55:30;;;;;;;12.60;7.07;;;1.50;96.00;;;;;;2088472;28;20806;-71
2022/03/28 04:56:30;;;;;;;13.83;7.33;;;1.40;96.20;;;;;;2088248;28;20208;-71
2022/03/28 04:57:32;;;;;;;14.93;6.70;;;1.40;96.30;;;;;;2088524;28;20275;-71
2022/03/28 04:58:32;;;;;;;13.13;7.15;;;1.40;96.60;;;;;;2088182;28;20295;-71
2022/03/28 04:59:33;;;;;;;12.33;6.03;;;1.40;96.60;;;;;;2088498;28;20180;-71
2022/03/28 05:00:34;;;;;;;14.65;7.63;;;1.50;96.50;;;;;;2088349;28;20630;-71
2022/03/28 05:01:35;;;;;;;14.90;7.53;;;1.50;96.10;;;;;;2087863;28;20188;-71
2022/03/28 05:02:36;;;;;;;12.37;6.73;;;1.50;95.80;;;;;;2088362;28;20199;-71
2022/03/28 05:03:37;;;;;;;14.45;8.10;;;1.50;95.40;;;;;;2088075;28;20246;-71
2022/03/28 05:04:38;;;;;;;12.57;7.53;;;1.50;95.10;;;;;;2088496;28;20714;-71
2022/03/28 05:05:38;;;;;;;15.33;7.07;;;1.50;95.30;;;;;;2088500;28;20183;-71
2022/03/28 05:06:39;;;;;;;14.97;7.27;;;1.50;95.40;;;;;;2087894;28;20263;-71
2022/03/28 05:07:40;;;;;;;10.93;6.03;;;1.50;95.40;;;;;;2088186;28;20226;-71
2022/03/28 05:08:41;;;;;;;12.93;6.90;;;1.50;95.40;;;;;;2087923;28;20246;-71
2022/03/28 05:09:41;;;;;;;15.70;7.83;;;1.50;95.20;;;;;;2088492;28;20194;-71
2022/03/28 05:10:43;;;;;;;13.13;6.87;;;1.50;95.20;;;;;;2089809;28;20192;-71
2022/03/28 05:11:44;;;;;;;11.52;7.10;;;1.50;95.00;;;;;;2089360;28;20288;-71
2022/03/28 05:12:45;;;;;;;12.60;7.03;;;1.50;95.40;;;;;;2081397;28;20189;-71
2022/03/28 05:13:45;;;;;;;16.02;7.07;;;1.50;95.40;;;;;;2088632;28;20181;-71
2022/03/28 05:14:47;;;;;;;14.33;6.93;;;1.50;95.50;;;;;;2088111;28;20729;-71
2022/03/28 05:15:48;;;;;;;11.60;6.63;;;1.50;95.70;;;;;;2088730;28;20188;-71
2022/03/28 05:16:49;;;;;;;11.23;6.43;;;1.40;95.70;;;;;;2088650;28;20295;-70
2022/03/28 05:17:49;;;;;;;12.32;6.40;;;1.50;95.80;;;;;;2090041;28;20185;-71
2022/03/28 05:18:50;;;;;;;14.53;7.60;;;1.50;95.80;;;;;;2090488;28;20218;-71
2022/03/28 05:19:52;;;;;;;13.77;7.33;;;1.50;95.50;;;;;;2091744;28;20187;-71
2022/03/28 05:20:53;;;;;;;13.55;7.25;;;1.50;95.40;;;;;;2090410;28;20176;-71